Time;durP1;ratioP1;P1;durP2;ratioP2;P2;SDS_P1;SDS_P2;PMS_P1;PMS_P2;Temp;Humidity;BMP_temperature;BMP_pressure;BME280_temperature;BME280_humidity;BME280_pressure;Samples;Min_cycle;Max_cycle;Signal;HPM_P1;HPM_P2
2021/08/07 00:00:07;;;;;;;9.52;4.18;;;;;;;14.92;100.00;100447.78;5226292;28;20035;-81
2021/08/07 00:02:38;;;;;;;9.65;3.95;;;;;;;14.88;100.00;100451.91;5226380;28;20098;-81
2021/08/07 00:05:09;;;;;;;12.10;4.40;;;;;;;14.82;100.00;100445.47;5213882;28;20083;-81
2021/08/07 00:07:39;;;;;;;11.60;4.40;;;;;;;14.73;100.00;100434.00;5226914;28;20025;-79
2021/08/07 00:10:10;;;;;;;10.25;3.80;;;;;;;14.66;100.00;100438.56;5229505;28;20039;-80
2021/08/07 00:12:41;;;;;;;9.43;4.38;;;;;;;14.58;100.00;100436.03;5232556;28;20092;-80
2021/08/07 00:15:11;;;;;;;15.43;4.38;;;;;;;14.52;100.00;100427.91;5232970;28;20040;-81
2021/08/07 00:17:42;;;;;;;11.43;4.68;;;;;;;14.42;100.00;100430.97;5233086;28;20045;-81
2021/08/07 00:20:12;;;;;;;14.57;5.28;;;;;;;14.36;100.00;100432.59;5232839;28;20640;-81
2021/08/07 00:22:43;;;;;;;15.90;4.47;;;;;;;14.29;100.00;100437.13;5232734;28;20028;-81
2021/08/07 00:25:13;;;;;;;12.40;4.97;;;;;;;14.19;100.00;100437.47;5232627;28;20032;-81
2021/08/07 00:27:44;;;;;;;12.85;4.72;;;;;;;14.14;100.00;100437.25;5232910;28;20047;-82
2021/08/07 00:30:15;;;;;;;11.15;4.53;;;;;;;14.09;100.00;100439.72;5232529;28;20021;-81
2021/08/07 00:32:45;;;;;;;12.15;5.18;;;;;;;14.04;100.00;100438.66;5232676;28;20039;-81
2021/08/07 00:35:16;;;;;;;13.48;5.10;;;;;;;14.04;100.00;100436.78;5232302;28;20024;-79
2021/08/07 00:37:46;;;;;;;10.93;5.60;;;;;;;14.03;100.00;100440.50;5231926;28;20021;-81
2021/08/07 00:40:17;;;;;;;17.15;5.55;;;;;;;14.08;100.00;100450.72;5231863;28;20025;-81
2021/08/07 00:42:48;;;;;;;13.55;5.72;;;;;;;14.09;100.00;100445.09;5232257;28;20390;-81
2021/08/07 00:45:18;;;;;;;17.73;5.93;;;;;;;14.06;100.00;100450.91;5232138;28;20108;-81
2021/08/07 00:47:49;;;;;;;18.23;6.65;;;;;;;14.11;100.00;100443.06;5231371;28;20025;-81
2021/08/07 00:50:19;;;;;;;15.52;5.95;;;;;;;14.10;100.00;100443.25;5231665;28;20090;-81
2021/08/07 00:52:50;;;;;;;21.15;7.40;;;;;;;14.11;100.00;100436.84;5229506;28;20020;-81
2021/08/07 00:55:20;;;;;;;15.40;7.78;;;;;;;14.18;100.00;100430.44;5224146;28;20115;-79
2021/08/07 00:57:51;;;;;;;16.05;6.53;;;;;;;14.27;100.00;100432.97;5225544;28;20017;-81
2021/08/07 01:00:21;;;;;;;14.95;6.35;;;;;;;14.33;100.00;100434.88;5225123;28;20035;-81
2021/08/07 01:03:12;;;;;;;18.65;6.53;;;;;;;14.36;100.00;100429.06;5205654;28;20029;-81
2021/08/07 01:05:53;;;;;;;15.20;6.25;;;;;;;14.43;100.00;100429.91;5217645;28;20017;-81
2021/08/07 01:08:25;;;;;;;20.10;6.03;;;;;;;14.47;100.00;100428.50;5212948;28;20561;-81
2021/08/07 01:11:08;;;;;;;14.55;5.82;;;;;;;14.48;100.00;100422.09;5224908;28;20064;-81
2021/08/07 01:13:50;;;;;;;12.40;5.38;;;;;;;14.52;100.00;100419.81;5225448;28;20029;-80
2021/08/07 01:16:44;;;;;;;17.58;6.95;;;;;;;14.54;100.00;100425.84;5225117;28;20087;-81
2021/08/07 01:19:17;;;;;;;14.98;5.80;;;;;;;14.53;100.00;100426.88;5224943;28;20033;-81
2021/08/07 01:21:54;;;;;;;16.95;6.10;;;;;;;14.57;100.00;100423.56;5225357;28;20027;-81
2021/08/07 01:24:24;;;;;;;19.42;5.90;;;;;;;14.59;100.00;100426.88;5225250;28;20025;-80
2021/08/07 01:26:55;;;;;;;12.90;6.05;;;;;;;14.63;100.00;100428.16;5225754;28;20032;-79
2021/08/07 01:29:27;;;;;;;14.65;6.25;;;;;;;14.64;100.00;100429.00;5224839;28;20078;-81
2021/08/07 01:31:58;;;;;;;17.38;5.57;;;;;;;14.65;100.00;100428.78;5225366;28;20052;-81
2021/08/07 01:34:29;;;;;;;11.43;5.40;;;;;;;14.68;100.00;100428.38;5225207;28;20024;-79
2021/08/07 01:37:00;;;;;;;16.02;6.35;;;;;;;14.69;100.00;100421.09;5225099;28;20393;-82
2021/08/07 01:39:30;;;;;;;10.68;5.30;;;;;;;14.71;100.00;100424.47;5224973;28;20043;-81
2021/08/07 01:42:02;;;;;;;13.15;5.10;;;;;;;14.71;100.00;100419.88;5224846;28;20038;-80
2021/08/07 01:44:32;;;;;;;12.90;5.53;;;;;;;14.71;100.00;100425.28;5225014;28;20379;-81
2021/08/07 01:47:19;;;;;;;15.85;4.70;;;;;;;14.72;100.00;100418.00;5224933;28;20017;-81
2021/08/07 01:50:06;;;;;;;13.10;4.97;;;;;;;14.72;100.00;100421.53;5224853;28;20775;-81
2021/08/07 01:52:42;;;;;;;12.25;4.78;;;;;;;14.70;100.00;100409.28;5224784;28;20041;-81
2021/08/07 01:55:20;;;;;;;11.95;5.20;;;;;;;14.71;100.00;100411.78;5224946;28;20021;-81
2021/08/07 01:57:58;;;;;;;11.68;5.70;;;;;;;14.71;100.00;100403.69;5224978;28;20025;-81
2021/08/07 02:00:29;;;;;;;16.02;5.07;;;;;;;14.69;100.00;100399.50;5224603;28;20032;-81
2021/08/07 02:03:01;;;;;;;8.68;4.47;;;;;;;14.70;100.00;100403.88;5221150;28;20382;-80
2021/08/07 02:05:32;;;;;;;13.73;4.55;;;;;;;14.66;100.00;100406.16;5215176;28;20040;-81
2021/08/07 02:08:04;;;;;;;14.00;4.85;;;;;;;14.66;100.00;100416.09;5225008;28;20052;-81
2021/08/07 02:10:58;;;;;;;10.30;4.43;;;;;;;14.66;100.00;100408.00;5207933;28;20123;-81
2021/08/07 02:13:32;;;;;;;17.63;4.65;;;;;;;14.66;100.00;100402.59;5213812;28;20112;-81
2021/08/07 02:16:03;;;;;;;17.23;4.57;;;;;;;14.65;100.00;100400.94;5224884;28;20021;-81
2021/08/07 02:18:34;;;;;;;10.05;5.10;;;;;;;14.63;100.00;100394.94;5224973;28;20471;-79
2021/08/07 02:21:05;;;;;;;11.07;4.38;;;;;;;14.64;100.00;100396.59;5224465;28;20039;-80
2021/08/07 02:23:36;;;;;;;9.13;5.05;;;;;;;14.64;100.00;100394.72;5224359;28;20045;-80
2021/08/07 02:26:10;;;;;;;15.82;5.07;;;;;;;14.65;100.00;100398.25;5224489;28;20488;-81
2021/08/07 02:28:40;;;;;;;16.67;5.10;;;;;;;14.65;100.00;100401.78;5229588;28;20028;-80
2021/08/07 02:31:12;;;;;;;11.05;4.78;;;;;;;14.66;100.00;100402.59;5213265;28;20029;-79
2021/08/07 02:33:44;;;;;;;11.93;4.93;;;;;;;14.66;100.00;100395.38;5231621;28;20085;-81
2021/08/07 02:36:15;;;;;;;14.95;5.28;;;;;;;14.67;100.00;100399.72;5231161;28;20032;-80
2021/08/07 02:38:46;;;;;;;14.23;4.80;;;;;;;14.68;100.00;100397.84;5231616;28;20053;-81
2021/08/07 02:41:18;;;;;;;16.08;5.13;;;;;;;14.66;100.00;100389.97;5230943;28;20120;-80
2021/08/07 02:43:48;;;;;;;18.55;4.78;;;;;;;14.68;100.00;100393.28;5231495;28;20021;-80
2021/08/07 02:46:19;;;;;;;9.82;4.50;;;;;;;14.68;100.00;100387.06;5231459;28;20032;-81
2021/08/07 02:48:52;;;;;;;12.98;5.25;;;;;;;14.69;100.00;100383.31;5216411;28;20025;-81
2021/08/07 02:51:24;;;;;;;17.63;4.78;;;;;;;14.66;100.00;100375.59;5210564;28;20039;-81
2021/08/07 02:53:55;;;;;;;9.20;4.28;;;;;;;14.68;100.00;100373.56;5231031;28;20021;-81
2021/08/07 02:56:26;;;;;;;6.65;4.32;;;;;;;14.68;100.00;100365.47;5231733;28;20021;-81
2021/08/07 02:58:56;;;;;;;8.77;4.68;;;;;;;14.65;100.00;100363.97;5231190;28;20036;-81
2021/08/07 03:01:27;;;;;;;9.10;4.47;;;;;;;14.62;100.00;100359.00;5217910;28;20821;-80
2021/08/07 03:03:57;;;;;;;13.55;4.65;;;;;;;14.62;100.00;100360.88;5231236;28;20033;-81
2021/08/07 03:06:28;;;;;;;13.68;4.80;;;;;;;14.60;100.00;100360.22;5225832;28;20056;-81
2021/08/07 03:08:58;;;;;;;15.93;4.18;;;;;;;14.59;100.00;100361.28;5224257;28;20482;-81
2021/08/07 03:11:29;;;;;;;11.13;4.35;;;;;;;14.57;100.00;100361.50;5223900;28;20424;-81
2021/08/07 03:13:59;;;;;;;9.13;4.22;;;;;;;14.53;100.00;100357.53;5210377;28;20554;-81
2021/08/07 03:16:30;;;;;;;10.45;4.10;;;;;;;14.49;100.00;100348.16;5224129;28;20021;-81
2021/08/07 03:19:00;;;;;;;9.80;3.95;;;;;;;14.45;100.00;100350.41;5226625;28;20029;-81
2021/08/07 03:21:31;;;;;;;11.00;4.35;;;;;;;14.42;100.00;100355.41;5217802;28;20025;-81
2021/08/07 03:24:01;;;;;;;12.35;4.80;;;;;;;14.40;100.00;100355.59;5229539;28;20036;-79
2021/08/07 03:26:32;;;;;;;18.13;4.32;;;;;;;14.38;100.00;100354.97;5229924;28;20032;-80
2021/08/07 03:29:04;;;;;;;13.52;5.13;;;;;;;14.36;100.00;100356.22;5230456;28;20017;-81
2021/08/07 03:31:34;;;;;;;14.02;4.55;;;;;;;14.32;100.00;100352.25;5230078;28;20524;-81
2021/08/07 03:34:05;;;;;;;9.52;4.20;;;;;;;14.27;100.00;100349.34;5229779;28;20017;-81
2021/08/07 03:36:35;;;;;;;8.77;4.47;;;;;;;14.20;100.00;100346.59;5229151;28;20025;-79
2021/08/07 03:39:06;;;;;;;9.15;4.78;;;;;;;14.16;100.00;100346.19;5230103;28;20090;-81
2021/08/07 03:41:36;;;;;;;10.30;4.88;;;;;;;14.11;100.00;100337.88;5233849;28;20464;-81
2021/08/07 03:44:07;;;;;;;13.32;4.78;;;;;;;14.08;100.00;100340.13;5234086;28;20025;-81
2021/08/07 03:46:37;;;;;;;11.90;5.07;;;;;;;14.09;100.00;100341.78;5233393;28;20157;-81
2021/08/07 03:49:08;;;;;;;12.90;5.15;;;;;;;14.09;100.00;100348.00;5232480;28;20025;-80
2021/08/07 03:51:38;;;;;;;12.77;5.50;;;;;;;14.10;100.00;100346.97;5234175;28;20016;-81
2021/08/07 03:54:09;;;;;;;15.82;6.05;;;;;;;14.10;100.00;100341.56;5233758;28;20402;-80
2021/08/07 03:56:39;;;;;;;13.15;5.43;;;;;;;14.08;100.00;100338.25;5233791;28;20031;-80
2021/08/07 03:59:10;;;;;;;15.93;5.28;;;;;;;14.08;100.00;100340.13;5233119;28;20021;-80
2021/08/07 04:01:40;;;;;;;11.15;4.93;;;;;;;14.07;100.00;100336.59;5232909;28;20031;-80
2021/08/07 04:04:11;;;;;;;16.58;5.18;;;;;;;14.06;100.00;100345.72;5220351;28;20125;-81
2021/08/07 04:06:41;;;;;;;10.48;5.82;;;;;;;14.07;100.00;100346.56;5232859;28;20017;-81
2021/08/07 04:09:13;;;;;;;11.45;4.88;;;;;;;14.06;100.00;100342.19;5232804;28;20081;-79
2021/08/07 04:11:44;;;;;;;11.48;5.13;;;;;;;14.07;100.00;100341.16;5232548;28;20024;-81
2021/08/07 04:14:14;;;;;;;14.55;5.47;;;;;;;14.06;100.00;100345.72;5232626;28;20661;-79
2021/08/07 04:16:45;;;;;;;10.38;4.90;;;;;;;14.03;100.00;100345.28;5233607;28;20061;-79
2021/08/07 04:19:15;;;;;;;18.17;5.25;;;;;;;14.00;100.00;100335.72;5232473;28;20081;-80
2021/08/07 04:21:45;;;;;;;14.48;5.40;;;;;;;13.97;100.00;100339.66;5233052;28;20040;-81
2021/08/07 04:24:16;;;;;;;10.23;5.03;;;;;;;13.96;100.00;100337.19;5232738;28;20060;-81
2021/08/07 04:26:46;;;;;;;7.82;4.18;;;;;;;13.97;100.00;100334.28;5232279;28;20040;-79
2021/08/07 04:29:17;;;;;;;7.95;4.28;;;;;;;13.98;100.00;100325.16;5232748;28;20032;-81
2021/08/07 04:31:47;;;;;;;12.80;4.80;;;;;;;14.02;100.00;100322.88;5232993;28;20028;-80
2021/08/07 04:34:18;;;;;;;9.60;4.65;;;;;;;14.05;100.00;100327.03;5232915;28;20024;-80
2021/08/07 04:36:48;;;;;;;15.73;5.00;;;;;;;14.05;100.00;100327.84;5233288;28;20031;-81
2021/08/07 04:39:19;;;;;;;19.25;5.10;;;;;;;14.08;100.00;100322.06;5232205;28;20028;-79
2021/08/07 04:41:49;;;;;;;15.15;5.28;;;;;;;14.10;100.00;100322.69;5214543;28;20043;-79
2021/08/07 04:44:20;;;;;;;9.27;4.85;;;;;;;14.14;100.00;100315.88;5232953;28;20104;-80
2021/08/07 04:46:50;;;;;;;11.40;5.28;;;;;;;14.16;100.00;100316.50;5231762;28;20055;-80
2021/08/07 04:49:21;;;;;;;12.85;5.63;;;;;;;14.19;100.00;100305.28;5227424;28;20059;-81
2021/08/07 04:51:51;;;;;;;10.02;4.97;;;;;;;14.21;100.00;100305.94;5226198;28;20029;-79
2021/08/07 04:54:21;;;;;;;10.10;5.20;;;;;;;14.21;100.00;100305.94;5227865;28;20031;-80
2021/08/07 04:56:52;;;;;;;14.27;5.70;;;;;;;14.23;100.00;100306.56;5227505;28;20039;-81
2021/08/07 04:59:22;;;;;;;7.18;4.40;;;;;;;14.28;100.00;100305.13;5227316;28;20032;-81
2021/08/07 05:01:53;;;;;;;16.13;5.45;;;;;;;14.25;100.00;100300.94;5227544;28;20021;-80
2021/08/07 05:04:23;;;;;;;13.23;4.60;;;;;;;14.21;100.00;100299.72;5213546;28;20086;-81
2021/08/07 05:06:54;;;;;;;12.70;5.05;;;;;;;14.18;100.00;100305.50;5227607;28;20024;-81
2021/08/07 05:09:24;;;;;;;15.68;4.80;;;;;;;14.14;100.00;100309.63;5226979;28;20091;-80
2021/08/07 05:11:55;;;;;;;8.38;4.70;;;;;;;14.11;100.00;100312.75;5227416;28;20025;-83
2021/08/07 05:14:25;;;;;;;9.45;4.97;;;;;;;14.09;100.00;100304.84;5227286;28;20554;-79
2021/08/07 05:16:56;;;;;;;11.38;4.95;;;;;;;14.11;100.00;100307.38;5227593;28;20478;-80
2021/08/07 05:19:26;;;;;;;10.60;4.72;;;;;;;14.12;100.00;100301.75;5226884;28;20017;-81
2021/08/07 05:21:57;;;;;;;11.90;5.07;;;;;;;14.15;100.00;100300.50;5214730;28;20083;-81
2021/08/07 05:24:27;;;;;;;10.18;4.80;;;;;;;14.21;100.00;100300.53;5225115;28;20104;-81
2021/08/07 05:26:57;;;;;;;12.07;4.53;;;;;;;14.32;100.00;100296.41;5226573;28;20474;-80
2021/08/07 05:29:28;;;;;;;10.82;4.10;;;;;;;14.40;100.00;100295.38;5226222;28;20032;-80
2021/08/07 05:31:58;;;;;;;11.77;4.55;;;;;;;14.54;100.00;100299.81;5212067;28;20021;-80
2021/08/07 05:34:29;;;;;;;10.18;4.25;;;;;;;14.68;100.00;100290.69;5214401;28;20025;-80
2021/08/07 05:37:00;;;;;;;8.75;4.07;;;;;;;15.27;100.00;100289.84;5226131;28;20021;-80
2021/08/07 05:39:30;;;;;;;14.77;3.88;;;;;;;15.65;100.00;100289.13;5226041;28;20048;-80
2021/08/07 05:42:01;;;;;;;7.85;3.30;;;;;;;15.85;100.00;100285.53;5225997;28;20453;-80
2021/08/07 05:44:31;;;;;;;11.00;3.00;;;;;;;15.52;100.00;100276.47;5226199;28;20025;-82
2021/08/07 05:47:02;;;;;;;8.57;3.63;;;;;;;15.18;100.00;100277.59;5225560;28;20111;-81
2021/08/07 05:49:32;;;;;;;6.07;2.95;;;;;;;15.02;100.00;100284.25;5225170;28;20444;-80
2021/08/07 05:52:03;;;;;;;6.85;3.28;;;;;;;14.89;100.00;100284.25;5211686;28;20070;-80
2021/08/07 05:54:33;;;;;;;5.88;3.13;;;;;;;14.99;100.00;100281.13;5225808;28;20681;-80
2021/08/07 05:57:04;;;;;;;9.30;3.15;;;;;;;15.97;100.00;100283.84;5225521;28;20044;-79
2021/08/07 05:59:34;;;;;;;10.57;3.03;;;;;;;16.69;100.00;100282.56;5224530;28;20079;-80
2021/08/07 06:02:05;;;;;;;10.18;2.10;;;;;;;17.82;100.00;100282.34;5204365;28;20463;-82
2021/08/07 06:04:36;;;;;;;6.15;2.05;;;;;;;18.59;100.00;100289.84;5220561;28;20090;-82
2021/08/07 06:07:06;;;;;;;16.08;2.47;;;;;;;19.59;100.00;100275.38;5214275;28;20391;-81
2021/08/07 06:09:37;;;;;;;8.57;1.90;;;;;;;20.25;100.00;100276.75;5221406;28;20466;-80
2021/08/07 06:12:07;;;;;;;7.97;2.00;;;;;;;20.80;100.00;100276.13;5224823;28;20108;-81
2021/08/07 06:14:38;;;;;;;4.15;1.70;;;;;;;21.21;100.00;100266.66;5211569;28;20052;-82
2021/08/07 06:17:08;;;;;;;8.02;1.90;;;;;;;20.05;100.00;100277.19;5224514;28;20024;-81
2021/08/07 06:19:39;;;;;;;7.68;2.65;;;;;;;18.95;100.00;100272.56;5224425;28;20538;-82
2021/08/07 06:22:10;;;;;;;8.30;2.25;;;;;;;18.80;100.00;100264.88;5224682;28;20120;-83
2021/08/07 06:24:40;;;;;;;10.32;1.77;;;;;;;19.10;100.00;100264.78;5216894;28;20104;-81
2021/08/07 06:27:11;;;;;;;7.68;1.80;;;;;;;19.92;100.00;100274.72;5221611;28;20167;-81
2021/08/07 06:29:41;;;;;;;3.58;1.52;;;;;;;19.99;100.00;100280.88;5226596;28;20490;-81
2021/08/07 06:32:12;;;;;;;7.55;1.90;;;;;;;19.23;100.00;100269.16;5226722;28;20066;-80
2021/08/07 06:34:42;;;;;;;7.28;1.83;;;;;;;18.97;100.00;100272.31;5218687;28;20048;-80
2021/08/07 06:37:13;;;;;;;5.28;2.10;;;;;;;18.17;100.00;100262.66;5225882;28;20087;-80
2021/08/07 06:39:43;;;;;;;6.40;1.98;;;;;;;18.03;100.00;100262.03;5227477;28;20021;-81
2021/08/07 06:42:14;;;;;;;6.07;2.10;;;;;;;17.66;100.00;100271.22;5227550;28;20037;-80
2021/08/07 06:44:44;;;;;;;5.00;1.92;;;;;;;17.80;100.00;100265.44;5230631;28;20493;-79
2021/08/07 06:47:15;;;;;;;10.13;2.53;;;;;;;17.70;100.00;100265.13;5226985;28;20036;-79
2021/08/07 06:49:45;;;;;;;4.45;2.17;;;;;;;17.66;100.00;100253.06;5227251;28;20094;-80
2021/08/07 06:52:16;;;;;;;10.55;1.92;;;;;;;17.85;100.00;100254.75;5226743;28;20471;-80
2021/08/07 06:54:46;;;;;;;13.43;2.88;;;;;;;17.64;100.00;100262.50;5226535;28;20047;-80
2021/08/07 06:57:18;;;;;;;9.88;1.95;;;;;;;17.78;100.00;100256.72;5227807;28;20028;-80
2021/08/07 06:59:50;;;;;;;8.90;2.08;;;;;;;17.96;100.00;100266.72;5226637;28;20386;-80
2021/08/07 07:02:21;;;;;;;5.60;2.10;;;;;;;17.80;100.00;100260.03;5226750;28;20033;-80
2021/08/07 07:04:51;;;;;;;9.25;2.10;;;;;;;17.99;100.00;100266.25;5211848;28;20059;-80
2021/08/07 07:07:21;;;;;;;6.38;1.73;;;;;;;17.89;100.00;100259.72;5227144;28;21239;-80
2021/08/07 07:09:52;;;;;;;5.13;2.05;;;;;;;17.70;100.00;100254.28;5226064;28;20033;-80
2021/08/07 07:12:22;;;;;;;6.47;2.15;;;;;;;17.95;100.00;100251.50;5225559;28;20060;-80
2021/08/07 07:14:53;;;;;;;7.53;2.00;;;;;;;18.04;100.00;100260.16;5227491;28;20025;-80
2021/08/07 07:17:25;;;;;;;12.90;2.53;;;;;;;18.19;100.00;100263.28;5229085;28;20031;-80
2021/08/07 07:19:56;;;;;;;7.50;1.75;;;;;;;18.00;100.00;100262.47;5216426;28;20059;-81
2021/08/07 07:22:27;;;;;;;7.53;2.42;;;;;;;17.77;100.00;100255.06;5216464;28;20110;-80
2021/08/07 07:24:58;;;;;;;9.68;1.98;;;;;;;17.86;100.00;100259.09;5229883;28;20078;-79
2021/08/07 07:27:30;;;;;;;7.82;1.60;;;;;;;17.81;100.00;100258.97;5229305;28;20025;-80
2021/08/07 07:30:00;;;;;;;9.73;1.80;;;;;;;17.69;100.00;100260.75;5210249;28;20027;-78
2021/08/07 07:32:30;;;;;;;8.25;1.60;;;;;;;17.90;100.00;100259.47;5228091;28;20025;-80
2021/08/07 07:35:02;;;;;;;6.30;1.42;;;;;;;18.05;100.00;100259.09;5210219;28;20029;-81
2021/08/07 07:37:33;;;;;;;5.78;1.50;;;;;;;18.15;100.00;100264.78;5228204;28;20065;-81
2021/08/07 07:40:06;;;;;;;7.43;1.60;;;;;;;18.30;100.00;100270.63;5227453;28;20029;-80
2021/08/07 07:42:36;;;;;;;6.90;1.40;;;;;;;18.38;100.00;100266.78;5228964;28;20021;-81
2021/08/07 07:45:08;;;;;;;11.55;2.05;;;;;;;18.25;100.00;100269.66;5229235;28;20482;-80
2021/08/07 07:47:39;;;;;;;8.98;1.65;;;;;;;18.30;100.00;100272.53;5229092;28;20079;-81
2021/08/07 07:50:12;;;;;;;7.50;2.22;;;;;;;17.90;100.00;100266.81;5228572;28;20021;-80
2021/08/07 07:52:44;;;;;;;9.65;2.15;;;;;;;17.99;100.00;100262.72;5228282;28;20075;-79
2021/08/07 07:55:14;;;;;;;7.30;1.60;;;;;;;18.07;100.00;100259.66;5210059;28;20021;-79
2021/08/07 07:57:45;;;;;;;13.93;2.28;;;;;;;18.30;100.00;100258.94;5228275;28;20048;-80
2021/08/07 08:00:16;;;;;;;7.80;2.17;;;;;;;18.45;100.00;100264.78;5193355;28;20120;-79
2021/08/07 08:02:46;;;;;;;9.52;1.77;;;;;;;18.27;100.00;100265.69;5226216;28;20543;-79
2021/08/07 08:05:18;;;;;;;7.05;1.80;;;;;;;18.09;100.00;100265.72;5215638;28;20078;-79
2021/08/07 08:07:48;;;;;;;5.72;1.88;;;;;;;18.42;100.00;100256.25;5227505;28;20028;-81
2021/08/07 08:10:19;;;;;;;20.02;2.20;;;;;;;18.49;100.00;100254.28;5227508;28;20024;-80
2021/08/07 08:12:49;;;;;;;9.48;1.52;;;;;;;18.76;100.00;100246.56;5227523;28;20035;-81
2021/08/07 08:15:20;;;;;;;11.18;2.03;;;;;;;19.11;100.00;100247.41;5228221;28;20021;-79
2021/08/07 08:17:51;;;;;;;17.65;2.33;;;;;;;19.13;100.00;100248.00;5227640;28;20036;-80
2021/08/07 08:20:21;;;;;;;13.35;2.80;;;;;;;19.41;100.00;100246.44;5229758;28;20100;-81
2021/08/07 08:22:52;;;;;;;6.45;1.85;;;;;;;19.30;100.00;100236.41;5229803;28;20092;-82
2021/08/07 08:25:24;;;;;;;7.55;1.67;;;;;;;19.58;100.00;100249.25;5228559;28;20032;-80
2021/08/07 08:27:56;;;;;;;7.53;1.55;;;;;;;19.95;100.00;100246.22;5228969;28;20021;-81
2021/08/07 08:30:27;;;;;;;5.72;2.10;;;;;;;20.31;100.00;100239.53;5220935;28;20050;-81
2021/08/07 08:32:58;;;;;;;10.45;2.10;;;;;;;20.60;100.00;100229.44;5215405;28;20494;-79
2021/08/07 08:35:28;;;;;;;7.38;1.70;;;;;;;20.78;100.00;100231.91;5223711;28;20045;-79
2021/08/07 08:37:59;;;;;;;7.50;1.63;;;;;;;21.09;100.00;100230.50;5222594;28;20146;-81
2021/08/07 08:40:29;;;;;;;3.72;1.60;;;;;;;21.03;100.00;100236.09;5222059;28;20036;-83
2021/08/07 08:43:00;;;;;;;5.70;1.63;;;;;;;21.35;100.00;100230.88;5221982;28;20512;-84
2021/08/07 08:45:31;;;;;;;8.70;1.77;;;;;;;21.69;100.00;100231.59;5204738;28;20036;-79
2021/08/07 08:48:02;;;;;;;8.30;1.75;;;;;;;21.26;100.00;100227.72;5219834;28;20032;-83
2021/08/07 08:50:33;;;;;;;9.77;1.73;;;;;;;21.51;100.00;100227.28;5222444;28;20029;-79
2021/08/07 08:53:05;;;;;;;9.18;1.90;;;;;;;21.40;100.00;100222.75;5222295;28;20056;-81
2021/08/07 08:55:37;;;;;;;9.55;1.77;;;;;;;21.17;100.00;100227.31;5219630;28;20025;-81
2021/08/07 08:58:07;;;;;;;6.03;1.73;;;;;;;21.03;100.00;100225.19;5222404;28;20059;-82
2021/08/07 09:00:38;;;;;;;8.95;2.30;;;;;;;;;;5222142;28;20044;-81
2021/08/07 09:03:08;;;;;;;7.43;1.35;;;;;;;20.61;100.00;100220.19;5212350;28;20036;-81
2021/08/07 09:05:48;;;;;;;14.07;2.08;;;;;;;20.47;100.00;100224.31;5220180;28;20100;-81
2021/08/07 09:08:19;;;;;;;11.60;1.50;;;;;;;20.57;100.00;100219.03;5221977;28;20112;-81
2021/08/07 09:11:11;;;;;;;6.45;1.60;;;;;;;20.69;100.00;100217.06;5199712;28;20109;-82
2021/08/07 09:13:42;;;;;;;9.88;1.80;;;;;;;20.73;100.00;100204.56;5222404;28;20466;-82
2021/08/07 09:16:14;;;;;;;6.35;1.40;;;;;;;20.81;100.00;100212.34;5204170;28;20056;-80
2021/08/07 09:18:55;;;;;;;8.13;1.88;;;;;;;20.43;100.00;100203.00;5222160;28;20427;-81
2021/08/07 09:21:26;;;;;;;6.20;1.48;;;;;;;20.38;100.00;100202.91;5217029;28;20075;-81
2021/08/07 09:24:07;;;;;;;5.50;1.60;;;;;;;20.40;100.00;100206.19;5221637;28;20037;-83
2021/08/07 09:26:42;;;;;;;6.50;1.60;;;;;;;20.69;100.00;100198.00;5221573;28;20063;-81
2021/08/07 09:29:13;;;;;;;6.20;1.50;;;;;;;20.64;100.00;100196.00;5204174;28;20405;-81
2021/08/07 09:31:57;;;;;;;6.53;1.40;;;;;;;20.49;100.00;100198.47;5222003;28;20031;-81
2021/08/07 09:34:28;;;;;;;4.70;1.50;;;;;;;20.25;100.00;100199.66;5224879;28;20029;-82
2021/08/07 09:36:58;;;;;;;4.20;1.10;;;;;;;20.58;100.00;100190.69;5221027;28;20512;-81
2021/08/07 09:39:36;;;;;;;5.47;1.40;;;;;;;21.13;100.00;100190.72;5221202;28;20040;-81
2021/08/07 09:42:07;;;;;;;9.35;1.55;;;;;;;21.29;100.00;100183.59;5218733;28;20063;-81
2021/08/07 09:44:38;;;;;;;7.32;1.60;;;;;;;21.39;100.00;100196.56;5222573;28;20029;-81
2021/08/07 09:47:12;;;;;;;6.35;1.48;;;;;;;21.66;100.00;100186.50;5217042;28;20036;-81
2021/08/07 09:49:45;;;;;;;7.38;1.65;;;;;;;21.80;100.00;100188.84;5216331;28;20115;-82
2021/08/07 09:52:17;;;;;;;3.88;1.17;;;;;;;21.84;100.00;100181.78;5223127;28;20020;-81
2021/08/07 09:54:48;;;;;;;7.15;1.40;;;;;;;21.68;100.00;100183.53;5221767;28;20107;-82
2021/08/07 09:57:25;;;;;;;6.82;1.63;;;;;;;21.91;100.00;100177.78;5219376;28;20025;-81
2021/08/07 09:59:55;;;;;;;5.35;1.20;;;;;;;22.03;100.00;100183.06;5217930;28;20641;-78
2021/08/07 10:02:31;;;;;;;5.65;1.60;;;;;;;22.01;100.00;100173.50;5213526;28;20056;-80
2021/08/07 10:05:03;;;;;;;6.85;1.08;;;;;;;22.23;100.00;100188.75;5221177;28;20032;-82
2021/08/07 10:07:34;;;;;;;7.28;1.15;;;;;;;22.17;100.00;100183.53;5222762;28;20028;-80
2021/08/07 10:10:21;;;;;;;13.75;1.55;;;;;;;21.71;100.00;100188.47;5221237;28;20074;-79
2021/08/07 10:12:53;;;;;;;3.63;1.30;;;;;;;21.59;100.00;100180.44;5220996;28;20025;-80
2021/08/07 10:15:23;;;;;;;7.32;1.50;;;;;;;21.50;100.00;100181.97;5221414;28;20123;-85
2021/08/07 10:17:55;;;;;;;6.03;1.20;;;;;;;21.65;100.00;100184.06;5222861;28;20485;-82
2021/08/07 10:20:28;;;;;;;19.63;1.75;;;;;;;21.91;100.00;100175.06;5204969;28;20024;-81
2021/08/07 10:22:58;;;;;;;8.90;1.33;;;;;;;21.84;100.00;100176.31;5221558;28;20028;-82
2021/08/07 10:25:30;;;;;;;5.85;1.45;;;;;;;21.80;100.00;100169.75;5221969;28;20037;-81
2021/08/07 10:28:03;;;;;;;6.55;1.20;;;;;;;21.74;100.00;100166.16;5222107;28;20021;-81
2021/08/07 10:30:34;;;;;;;5.43;1.20;;;;;;;21.31;100.00;100169.72;5221680;28;20060;-82
2021/08/07 10:33:06;;;;;;;5.10;1.00;;;;;;;20.64;100.00;100163.31;5222365;28;20017;-81
2021/08/07 10:35:37;;;;;;;10.75;1.40;;;;;;;20.90;100.00;100155.50;5222084;28;20018;-80
2021/08/07 10:38:07;;;;;;;2.85;0.75;;;;;;;21.57;100.00;100157.19;5222192;28;20591;-81
2021/08/07 10:40:38;;;;;;;8.98;1.67;;;;;;;21.62;100.00;100151.78;5222016;28;20032;-82
2021/08/07 10:43:10;;;;;;;12.80;1.35;;;;;;;21.51;100.00;100156.31;5221669;28;20020;-81
2021/08/07 10:45:42;;;;;;;3.03;0.70;;;;;;;21.31;100.00;100148.72;5220987;28;20036;-81
2021/08/07 10:48:35;;;;;;;8.32;1.40;;;;;;;21.37;100.00;100135.94;5212585;28;20018;-82
2021/08/07 10:51:28;;;;;;;6.38;1.38;;;;;;;21.53;100.00;100142.41;5227275;28;20044;-82
2021/08/07 10:54:01;;;;;;;4.00;0.98;;;;;;;21.88;100.00;100140.06;5217827;28;20029;-81
2021/08/07 10:56:31;;;;;;;5.97;1.17;;;;;;;22.36;100.00;100130.16;5226163;28;20474;-81
2021/08/07 10:59:11;;;;;;;5.65;0.82;;;;;;;22.95;100.00;100137.41;5221373;28;20068;-81
2021/08/07 11:01:43;;;;;;;5.53;1.33;;;;;;;22.57;100.00;100147.50;5217991;28;20033;-82
2021/08/07 11:04:19;;;;;;;4.57;1.20;;;;;;;22.48;100.00;100130.78;5224752;28;20021;-81
2021/08/07 11:06:55;;;;;;;5.20;0.80;;;;;;;22.40;100.00;100138.66;5226999;28;20040;-80
2021/08/07 11:09:37;;;;;;;6.05;1.33;;;;;;;22.89;100.00;100132.97;5226819;28;20378;-81
2021/08/07 11:12:10;;;;;;;8.55;0.90;;;;;;;22.40;100.00;100134.00;5218628;28;20726;-81
2021/08/07 11:14:42;;;;;;;5.18;1.10;;;;;;;22.62;100.00;100124.84;5225654;28;20032;-81
2021/08/07 11:17:12;;;;;;;3.00;0.80;;;;;;;22.63;100.00;100126.50;5225741;28;20028;-81
2021/08/07 11:19:56;;;;;;;4.57;1.13;;;;;;;22.57;100.00;100122.91;5225948;28;20100;-80
2021/08/07 11:22:33;;;;;;;4.60;1.02;;;;;;;22.62;100.00;100127.59;5226329;28;20029;-80
2021/08/07 11:25:07;;;;;;;6.28;1.40;;;;;;;22.59;100.00;100111.72;5225784;28;20035;-81
2021/08/07 11:30:28;;;;;;;8.63;1.63;;;;;;;23.25;100.00;100112.09;5226362;28;20287;-80
2021/08/07 11:33:00;;;;;;;7.05;1.27;;;;;;;23.56;100.00;100109.47;5226307;28;20254;-81
2021/08/07 11:35:30;;;;;;;6.38;1.17;;;;;;;23.77;100.00;100119.41;5207198;28;20024;-81
2021/08/07 11:38:09;;;;;;;11.18;1.40;;;;;;;23.65;100.00;100108.69;5225718;28;20394;-81